createdAt,value
2022-11-05T00:02:48.475Z,4.70
2022-11-05T00:07:09.032Z,4.40
2022-11-05T00:11:15.241Z,5.50
2022-11-05T00:15:36.105Z,4.90
2022-11-05T00:19:34.794Z,3.90
2022-11-05T00:23:51.948Z,6.20
2022-11-05T00:27:53.323Z,4.80
2022-11-05T00:31:52.755Z,4.30
2022-11-05T00:35:51.277Z,5.10
2022-11-05T00:39:50.013Z,5.40
2022-11-05T00:44:07.276Z,4.30
2022-11-05T00:48:24.971Z,3.80
2022-11-05T00:52:53.826Z,4.60
2022-11-05T00:57:04.914Z,4.90
2022-11-05T01:00:44.154Z,7.30
2022-11-05T01:04:19.443Z,6.40
2022-11-05T01:07:57.027Z,7.20
2022-11-05T01:11:40.048Z,6.00
2022-11-05T01:15:13.245Z,7.30
2022-11-05T01:18:50.222Z,5.80
2022-11-05T01:22:30.514Z,6.00
2022-11-05T01:26:03.678Z,5.60
2022-11-05T01:29:42.083Z,5.30
2022-11-05T01:33:20.413Z,6.20
2022-11-05T01:36:58.405Z,6.30
2022-11-05T01:40:36.588Z,6.20
2022-11-05T01:44:51.017Z,6.70
2022-11-05T01:48:19.564Z,6.40
2022-11-05T01:51:39.110Z,6.10
2022-11-05T01:55:18.036Z,6.30
2022-11-05T01:59:03.073Z,5.80
2022-11-05T02:02:33.297Z,6.20
2022-11-05T02:06:12.981Z,7.20
2022-11-05T02:09:53.609Z,4.10
2022-11-05T02:13:25.467Z,6.30
2022-11-05T02:17:22.638Z,6.00
2022-11-05T02:21:07.360Z,4.90
2022-11-05T02:24:47.708Z,7.20
2022-11-05T02:29:22.856Z,6.10
2022-11-05T02:32:58.245Z,5.30
2022-11-05T02:36:34.574Z,5.20
2022-11-05T02:40:00.057Z,5.50
2022-11-05T02:44:29.104Z,5.20
2022-11-05T02:47:39.961Z,5.40
2022-11-05T02:51:43.070Z,5.20
2022-11-05T02:55:05.411Z,5.20
2022-11-05T02:58:40.534Z,5.00
2022-11-05T03:02:11.147Z,5.90
2022-11-05T03:06:22.367Z,4.60
2022-11-05T03:09:43.859Z,5.00
2022-11-05T03:13:22.428Z,4.70
2022-11-05T03:17:25.280Z,5.40
2022-11-05T03:20:35.863Z,5.00
2022-11-05T03:24:30.930Z,5.20
2022-11-05T03:27:52.147Z,6.00
2022-11-05T03:31:28.733Z,5.80
2022-11-05T03:35:11.862Z,6.20
2022-11-05T03:38:47.582Z,5.70
2022-11-05T03:42:23.496Z,5.50
2022-11-05T03:46:09.295Z,4.60
2022-11-05T03:49:44.055Z,5.40
2022-11-05T03:53:33.898Z,5.10
2022-11-05T03:56:56.892Z,5.10
2022-11-05T04:00:28.791Z,5.40
2022-11-05T04:04:14.868Z,5.20
2022-11-05T04:08:03.978Z,5.00
2022-11-05T04:11:39.145Z,4.80
2022-11-05T04:14:58.679Z,5.10
2022-11-05T04:18:40.090Z,4.80
2022-11-05T04:22:32.511Z,5.10
2022-11-05T04:26:49.295Z,5.40
2022-11-05T04:30:22.124Z,5.20
2022-11-05T04:33:59.803Z,5.40
2022-11-05T04:37:36.251Z,5.10
2022-11-05T04:41:20.336Z,5.60
2022-11-05T04:44:50.656Z,4.80
2022-11-05T04:48:59.773Z,4.60
2022-11-05T04:52:37.220Z,6.60
2022-11-05T04:56:19.306Z,5.90
2022-11-05T04:59:55.565Z,6.40
2022-11-05T05:03:30.978Z,5.00
2022-11-05T05:07:06.977Z,5.40
2022-11-05T05:10:47.278Z,6.60
2022-11-05T05:14:22.289Z,6.20
2022-11-05T05:18:00.903Z,7.00
2022-11-05T05:21:44.762Z,5.70
2022-11-05T05:25:17.257Z,6.20
2022-11-05T05:28:52.810Z,7.00
2022-11-05T05:33:07.859Z,6.80
2022-11-05T05:36:39.611Z,6.70
2022-11-05T05:40:49.445Z,6.40
2022-11-05T05:44:27.004Z,6.90
2022-11-05T05:48:05.766Z,6.20
2022-11-05T05:51:41.468Z,7.10
2022-11-05T05:55:20.381Z,6.40
2022-11-05T05:58:57.498Z,7.80
2022-11-05T06:02:37.663Z,6.40
2022-11-05T06:06:16.658Z,7.80
2022-11-05T06:09:50.315Z,6.20
2022-11-05T06:13:28.366Z,7.40
2022-11-05T06:17:06.592Z,6.40
2022-11-05T06:20:51.611Z,7.10
2022-11-05T06:24:22.325Z,6.40
2022-11-05T06:27:58.589Z,6.50
2022-11-05T06:31:36.677Z,5.90
2022-11-05T06:35:13.319Z,6.20
2022-11-05T06:38:50.998Z,5.80
2022-11-05T06:42:39.322Z,5.50
2022-11-05T06:46:05.995Z,4.50
2022-11-05T06:49:44.656Z,6.00
2022-11-05T06:53:23.833Z,6.10
2022-11-05T06:57:03.605Z,6.20
2022-11-05T07:00:38.610Z,4.90
2022-11-05T07:04:22.487Z,4.50
2022-11-05T07:07:54.673Z,5.30
2022-11-05T07:11:33.915Z,5.90
2022-11-05T07:15:10.552Z,5.10
2022-11-05T07:18:46.632Z,5.70
2022-11-05T07:22:24.717Z,4.90
2022-11-05T07:25:59.964Z,4.30
2022-11-05T07:30:15.794Z,4.20
2022-11-05T07:33:48.106Z,4.00
2022-11-05T07:37:26.298Z,4.30
2022-11-05T07:41:08.276Z,3.90
2022-11-05T07:44:41.750Z,3.50
2022-11-05T07:48:24.714Z,3.50
2022-11-05T07:51:59.154Z,3.70
2022-11-05T07:55:38.261Z,3.20
2022-11-05T07:59:15.302Z,4.00
2022-11-05T08:03:07.102Z,3.40
2022-11-05T08:06:33.958Z,3.40
2022-11-05T08:10:07.570Z,3.50
2022-11-05T08:13:46.143Z,4.10
2022-11-05T08:17:22.115Z,4.40
2022-11-05T08:20:58.203Z,4.70
2022-11-05T08:24:34.058Z,5.10
2022-11-05T08:28:16.983Z,5.40
2022-11-05T08:31:50.706Z,6.40
2022-11-05T08:35:29.206Z,6.00
2022-11-05T08:39:10.646Z,5.60
2022-11-05T08:42:45.752Z,6.10
2022-11-05T08:46:25.174Z,6.30
2022-11-05T08:49:59.841Z,5.70
2022-11-05T08:53:38.611Z,6.20
2022-11-05T08:57:19.947Z,6.50
2022-11-05T09:00:56.078Z,6.80
2022-11-05T09:04:29.594Z,8.10
2022-11-05T09:08:11.804Z,8.20
2022-11-05T09:12:10.738Z,7.50
2022-11-05T09:15:18.112Z,7.20
2022-11-05T09:18:53.558Z,7.50
2022-11-05T09:22:53.785Z,7.30
2022-11-05T09:26:53.312Z,7.50
2022-11-05T09:30:53.886Z,8.00
2022-11-05T09:34:30.710Z,7.10
2022-11-05T09:38:55.391Z,7.50
2022-11-05T09:42:14.345Z,8.20
2022-11-05T09:45:49.765Z,7.60
2022-11-05T09:49:54.535Z,8.80
2022-11-05T09:53:55.327Z,8.70
2022-11-05T09:58:02.099Z,8.20
2022-11-05T10:02:12.269Z,7.80
2022-11-05T10:06:18.817Z,7.70
2022-11-05T10:10:48.708Z,7.70
2022-11-05T10:15:10.774Z,6.70
2022-11-05T10:19:16.646Z,6.80
2022-11-05T10:23:21.670Z,6.30
2022-11-05T10:27:36.472Z,6.30
2022-11-05T10:31:39.033Z,5.10
2022-11-05T10:35:48.504Z,4.60
2022-11-05T10:39:49.260Z,4.30
2022-11-05T10:43:58.317Z,2.50
2022-11-05T10:48:07.161Z,3.30
2022-11-05T10:52:37.220Z,2.30
2022-11-05T10:56:40.030Z,1.40
2022-11-05T11:00:40.057Z,1.10
2022-11-05T11:04:40.438Z,1.10
2022-11-05T11:08:40.209Z,1.20
2022-11-05T11:12:44.308Z,0.70
2022-11-05T11:16:51.620Z,1.60
2022-11-05T11:20:50.670Z,1.10
2022-11-05T11:24:54.121Z,1.20
2022-11-05T11:29:05.964Z,0.80
2022-11-05T11:33:13.127Z,0.80
2022-11-05T11:36:47.635Z,1.00
2022-11-05T11:40:47.500Z,0.60
2022-11-05T11:44:49.258Z,0.50
2022-11-05T11:48:50.104Z,1.00
2022-11-05T11:52:49.649Z,1.00
2022-11-05T11:56:49.355Z,0.80
2022-11-05T12:01:02.552Z,1.10
2022-11-05T12:05:02.046Z,1.60
2022-11-05T12:09:29.476Z,1.30
2022-11-05T12:14:25.922Z,1.20
2022-11-05T12:18:57.900Z,1.10
2022-11-05T12:23:54.243Z,1.40
2022-11-05T12:27:06.098Z,1.00
2022-11-05T12:31:36.336Z,1.00
2022-11-05T12:36:03.975Z,1.00
2022-11-05T12:40:42.234Z,1.20
2022-11-05T12:44:52.051Z,1.50
2022-11-05T12:48:57.970Z,1.70
2022-11-05T12:53:14.374Z,1.10
2022-11-05T12:57:17.430Z,1.50
2022-11-05T13:01:27.474Z,2.10
2022-11-05T13:06:08.859Z,1.50
2022-11-05T13:10:27.485Z,2.40
2022-11-05T13:14:29.834Z,1.90
2022-11-05T13:19:00.523Z,2.20
2022-11-05T13:23:38.106Z,2.40
2022-11-05T13:28:04.308Z,1.80
2022-11-05T13:32:27.076Z,2.30
2022-11-05T13:36:51.840Z,1.60
2022-11-05T13:41:23.805Z,1.80
2022-11-05T13:45:30.525Z,2.60
2022-11-05T13:50:11.268Z,2.50
2022-11-05T13:54:14.726Z,2.40
2022-11-05T13:58:47.385Z,2.30
2022-11-05T14:02:53.780Z,2.20
2022-11-05T14:06:55.389Z,1.70
2022-11-05T14:11:33.799Z,1.90
2022-11-05T14:15:33.900Z,1.90
2022-11-05T14:20:10.037Z,2.20
2022-11-05T14:24:23.358Z,1.90
2022-11-05T14:28:35.680Z,1.60
2022-11-05T14:32:46.221Z,2.10
2022-11-05T14:37:03.727Z,1.60
2022-11-05T14:41:04.151Z,1.50
2022-11-05T14:45:27.347Z,2.80
2022-11-05T14:49:31.839Z,2.40
2022-11-05T14:53:34.399Z,2.50
2022-11-05T14:57:55.491Z,1.90
2022-11-05T15:02:21.016Z,1.50
2022-11-05T15:05:39.807Z,2.00
2022-11-05T15:09:45.450Z,2.00
2022-11-05T15:14:01.687Z,2.20
2022-11-05T15:18:06.268Z,1.90
2022-11-05T15:22:12.964Z,2.20
2022-11-05T15:26:38.482Z,1.60
2022-11-05T15:30:38.585Z,1.80
2022-11-05T15:34:38.985Z,1.70
2022-11-05T15:38:56.671Z,2.60
2022-11-05T15:43:20.475Z,1.50
2022-11-05T15:47:28.227Z,2.20
2022-11-05T15:51:27.980Z,1.50
2022-11-05T15:55:55.453Z,2.40
2022-11-05T15:59:32.857Z,3.40
2022-11-05T16:03:35.996Z,2.80
2022-11-05T16:07:36.229Z,4.10
2022-11-05T16:11:35.939Z,4.70
2022-11-05T16:15:36.502Z,3.40
2022-11-05T16:19:40.910Z,3.30
2022-11-05T16:23:53.484Z,3.80
2022-11-05T16:27:54.374Z,3.20
2022-11-05T16:32:02.460Z,2.40
2022-11-05T16:35:46.312Z,2.60
2022-11-05T16:39:46.440Z,2.20
2022-11-05T16:43:55.992Z,6.10
2022-11-05T16:47:56.120Z,2.90
2022-11-05T16:51:55.825Z,2.40
2022-11-05T16:56:03.096Z,3.00
2022-11-05T16:59:34.182Z,3.00
2022-11-05T17:03:33.772Z,3.20
2022-11-05T17:07:53.254Z,2.90
2022-11-05T17:11:21.750Z,4.20
2022-11-05T17:15:39.584Z,3.80
2022-11-05T17:19:42.775Z,2.40
2022-11-05T17:23:42.737Z,3.20
2022-11-05T17:27:42.111Z,8.90
2022-11-05T17:31:42.109Z,2.00
2022-11-05T17:35:42.628Z,1.30
2022-11-05T17:39:43.466Z,2.40
2022-11-05T17:43:45.569Z,2.00
2022-11-05T17:47:21.774Z,2.60
2022-11-05T18:02:53.078Z,11.20
2022-11-05T18:06:01.837Z,6.60
2022-11-05T18:10:00.866Z,5.80
2022-11-05T18:14:00.125Z,8.10
2022-11-05T18:24:35.690Z,6.20
2022-11-05T18:28:39.724Z,7.50
2022-11-05T18:32:44.216Z,6.10
2022-11-05T18:36:21.859Z,7.20
2022-11-05T18:40:20.976Z,6.70
2022-11-05T18:44:38.897Z,6.30
2022-11-05T18:48:38.395Z,5.90
2022-11-05T18:52:38.166Z,5.60
2022-11-05T18:56:37.573Z,5.10
2022-11-05T19:00:39.809Z,4.30
2022-11-05T19:04:39.882Z,3.70
2022-11-05T19:08:39.736Z,4.20
2022-11-05T19:12:39.079Z,4.30
2022-11-05T19:16:38.817Z,4.10
2022-11-05T19:20:39.021Z,4.20
2022-11-05T19:24:52.504Z,5.10
2022-11-05T19:28:52.964Z,4.60
2022-11-05T19:32:52.763Z,4.40
2022-11-05T19:36:52.837Z,5.70
2022-11-05T19:40:52.943Z,5.10
2022-11-05T19:44:51.942Z,5.50
2022-11-05T19:48:52.988Z,4.40
2022-11-05T19:52:54.500Z,5.50
2022-11-05T19:56:53.416Z,4.50
2022-11-05T20:00:55.804Z,4.80
2022-11-05T20:04:54.764Z,5.40
2022-11-05T20:13:49.259Z,5.50
2022-11-05T20:17:08.179Z,4.90
2022-11-05T20:21:09.326Z,5.00
2022-11-05T20:25:09.391Z,4.50
2022-11-05T20:29:23.497Z,4.30
2022-11-05T20:33:22.282Z,4.40
2022-11-05T20:37:21.037Z,4.90
